sensor_id;sensor_type;location;lat;lon;timestamp;P1;durP1;ratioP1;P2;durP2;ratioP2
21352;SDS011;10834;52.268;6.770;2022-12-07T00:01:33;8.33;;;4.00;;
21352;SDS011;10834;52.268;6.770;2022-12-07T00:04:21;4.83;;;3.23;;
21352;SDS011;10834;52.268;6.770;2022-12-07T00:07:07;6.43;;;3.63;;
21352;SDS011;10834;52.268;6.770;2022-12-07T00:09:53;5.20;;;3.30;;
21352;SDS011;10834;52.268;6.770;2022-12-07T00:12:39;3.93;;;3.53;;
21352;SDS011;10834;52.268;6.770;2022-12-07T00:15:26;5.10;;;3.00;;
21352;SDS011;10834;52.268;6.770;2022-12-07T00:18:12;5.53;;;3.20;;
21352;SDS011;10834;52.268;6.770;2022-12-07T00:20:59;5.17;;;3.37;;
21352;SDS011;10834;52.268;6.770;2022-12-07T00:23:50;4.43;;;3.43;;
21352;SDS011;10834;52.268;6.770;2022-12-07T00:26:37;3.37;;;3.07;;
21352;SDS011;10834;52.268;6.770;2022-12-07T00:29:24;9.37;;;4.63;;
21352;SDS011;10834;52.268;6.770;2022-12-07T00:32:11;3.90;;;3.00;;
21352;SDS011;10834;52.268;6.770;2022-12-07T00:34:57;3.80;;;2.87;;
21352;SDS011;10834;52.268;6.770;2022-12-07T00:37:43;5.67;;;3.10;;
21352;SDS011;10834;52.268;6.770;2022-12-07T00:40:29;4.30;;;2.93;;
21352;SDS011;10834;52.268;6.770;2022-12-07T00:43:15;3.93;;;3.00;;
21352;SDS011;10834;52.268;6.770;2022-12-07T00:46:01;3.87;;;2.60;;
21352;SDS011;10834;52.268;6.770;2022-12-07T00:48:47;5.50;;;3.67;;
21352;SDS011;10834;52.268;6.770;2022-12-07T00:51:34;6.37;;;3.47;;
21352;SDS011;10834;52.268;6.770;2022-12-07T00:54:20;4.93;;;2.70;;
21352;SDS011;10834;52.268;6.770;2022-12-07T00:57:06;6.47;;;3.20;;
21352;SDS011;10834;52.268;6.770;2022-12-07T00:59:52;4.63;;;2.77;;
21352;SDS011;10834;52.268;6.770;2022-12-07T01:02:40;6.03;;;3.03;;
21352;SDS011;10834;52.268;6.770;2022-12-07T01:05:26;4.87;;;2.70;;
21352;SDS011;10834;52.268;6.770;2022-12-07T01:08:13;3.87;;;2.77;;
21352;SDS011;10834;52.268;6.770;2022-12-07T01:11:03;6.37;;;2.67;;
21352;SDS011;10834;52.268;6.770;2022-12-07T01:13:51;8.20;;;3.00;;
21352;SDS011;10834;52.268;6.770;2022-12-07T01:16:38;3.40;;;2.27;;
21352;SDS011;10834;52.268;6.770;2022-12-07T01:19:25;6.83;;;2.70;;
21352;SDS011;10834;52.268;6.770;2022-12-07T01:22:12;4.60;;;2.57;;
21352;SDS011;10834;52.268;6.770;2022-12-07T01:24:58;4.37;;;2.80;;
21352;SDS011;10834;52.268;6.770;2022-12-07T01:27:44;3.17;;;2.70;;
21352;SDS011;10834;52.268;6.770;2022-12-07T01:30:30;5.83;;;3.03;;
21352;SDS011;10834;52.268;6.770;2022-12-07T01:33:16;8.43;;;3.10;;
21352;SDS011;10834;52.268;6.770;2022-12-07T01:36:03;3.60;;;2.63;;
21352;SDS011;10834;52.268;6.770;2022-12-07T01:38:59;6.33;;;2.93;;
21352;SDS011;10834;52.268;6.770;2022-12-07T01:41:47;3.33;;;2.80;;
21352;SDS011;10834;52.268;6.770;2022-12-07T01:45:15;5.97;;;2.60;;
21352;SDS011;10834;52.268;6.770;2022-12-07T01:47:59;3.80;;;2.67;;
21352;SDS011;10834;52.268;6.770;2022-12-07T01:50:45;4.73;;;2.57;;
21352;SDS011;10834;52.268;6.770;2022-12-07T01:53:34;5.10;;;2.87;;
21352;SDS011;10834;52.268;6.770;2022-12-07T01:56:24;5.83;;;2.70;;
21352;SDS011;10834;52.268;6.770;2022-12-07T01:59:12;9.13;;;3.40;;
21352;SDS011;10834;52.268;6.770;2022-12-07T02:01:59;7.93;;;2.50;;
21352;SDS011;10834;52.268;6.770;2022-12-07T02:04:50;10.53;;;3.13;;
21352;SDS011;10834;52.268;6.770;2022-12-07T02:07:38;5.40;;;1.90;;
21352;SDS011;10834;52.268;6.770;2022-12-07T02:10:28;5.90;;;2.33;;
21352;SDS011;10834;52.268;6.770;2022-12-07T02:13:19;5.10;;;3.00;;
21352;SDS011;10834;52.268;6.770;2022-12-07T02:28:36;4.07;;;2.43;;
21352;SDS011;10834;52.268;6.770;2022-12-07T02:31:34;5.80;;;2.37;;
21352;SDS011;10834;52.268;6.770;2022-12-07T02:34:34;6.60;;;2.53;;
21352;SDS011;10834;52.268;6.770;2022-12-07T02:46:14;3.40;;;1.87;;
21352;SDS011;10834;52.268;6.770;2022-12-07T02:49:09;6.50;;;2.17;;
21352;SDS011;10834;52.268;6.770;2022-12-07T02:51:56;5.77;;;1.60;;
21352;SDS011;10834;52.268;6.770;2022-12-07T02:54:42;5.40;;;1.83;;
21352;SDS011;10834;52.268;6.770;2022-12-07T03:00:15;5.77;;;2.00;;
21352;SDS011;10834;52.268;6.770;2022-12-07T03:03:12;3.83;;;1.97;;
21352;SDS011;10834;52.268;6.770;2022-12-07T03:06:06;7.27;;;2.00;;
21352;SDS011;10834;52.268;6.770;2022-12-07T03:12:12;7.03;;;2.40;;
21352;SDS011;10834;52.268;6.770;2022-12-07T03:15:07;5.60;;;1.83;;
21352;SDS011;10834;52.268;6.770;2022-12-07T03:18:00;4.50;;;1.93;;
21352;SDS011;10834;52.268;6.770;2022-12-07T03:20:48;8.33;;;2.23;;
21352;SDS011;10834;52.268;6.770;2022-12-07T03:23:39;2.67;;;1.77;;
21352;SDS011;10834;52.268;6.770;2022-12-07T03:26:30;3.00;;;2.10;;
21352;SDS011;10834;52.268;6.770;2022-12-07T03:29:25;3.97;;;1.63;;
21352;SDS011;10834;52.268;6.770;2022-12-07T03:35:33;4.67;;;1.93;;
21352;SDS011;10834;52.268;6.770;2022-12-07T03:41:27;4.73;;;1.70;;
21352;SDS011;10834;52.268;6.770;2022-12-07T03:44:16;8.57;;;1.80;;
21352;SDS011;10834;52.268;6.770;2022-12-07T03:47:05;4.60;;;1.33;;
21352;SDS011;10834;52.268;6.770;2022-12-07T03:50:24;4.27;;;1.47;;
21352;SDS011;10834;52.268;6.770;2022-12-07T03:53:17;5.93;;;1.50;;
21352;SDS011;10834;52.268;6.770;2022-12-07T03:56:07;8.93;;;1.63;;
21352;SDS011;10834;52.268;6.770;2022-12-07T03:58:55;4.00;;;1.60;;
21352;SDS011;10834;52.268;6.770;2022-12-07T04:01:42;4.90;;;1.37;;
21352;SDS011;10834;52.268;6.770;2022-12-07T04:04:29;2.00;;;1.60;;
21352;SDS011;10834;52.268;6.770;2022-12-07T04:07:16;5.47;;;1.43;;
21352;SDS011;10834;52.268;6.770;2022-12-07T04:10:02;3.27;;;1.40;;
21352;SDS011;10834;52.268;6.770;2022-12-07T04:12:49;9.03;;;1.60;;
21352;SDS011;10834;52.268;6.770;2022-12-07T04:15:35;2.53;;;1.13;;
21352;SDS011;10834;52.268;6.770;2022-12-07T04:18:21;8.13;;;1.50;;
21352;SDS011;10834;52.268;6.770;2022-12-07T04:21:07;7.83;;;1.10;;
21352;SDS011;10834;52.268;6.770;2022-12-07T04:23:53;1.53;;;1.03;;
21352;SDS011;10834;52.268;6.770;2022-12-07T04:26:39;6.80;;;1.17;;
21352;SDS011;10834;52.268;6.770;2022-12-07T04:29:26;4.73;;;1.13;;
21352;SDS011;10834;52.268;6.770;2022-12-07T04:32:12;11.97;;;1.67;;
21352;SDS011;10834;52.268;6.770;2022-12-07T04:34:58;14.10;;;1.37;;
21352;SDS011;10834;52.268;6.770;2022-12-07T04:37:44;8.93;;;1.20;;
21352;SDS011;10834;52.268;6.770;2022-12-07T04:40:30;3.50;;;1.23;;
21352;SDS011;10834;52.268;6.770;2022-12-07T04:43:16;3.23;;;1.20;;
21352;SDS011;10834;52.268;6.770;2022-12-07T04:46:03;1.47;;;1.10;;
21352;SDS011;10834;52.268;6.770;2022-12-07T04:48:49;6.00;;;1.30;;
21352;SDS011;10834;52.268;6.770;2022-12-07T04:51:35;4.00;;;1.13;;
21352;SDS011;10834;52.268;6.770;2022-12-07T04:54:22;3.93;;;1.20;;
21352;SDS011;10834;52.268;6.770;2022-12-07T04:57:08;4.13;;;1.07;;
21352;SDS011;10834;52.268;6.770;2022-12-07T04:59:54;3.63;;;0.97;;
21352;SDS011;10834;52.268;6.770;2022-12-07T05:02:40;5.20;;;1.07;;
21352;SDS011;10834;52.268;6.770;2022-12-07T05:05:26;2.47;;;1.13;;
21352;SDS011;10834;52.268;6.770;2022-12-07T05:08:12;9.43;;;1.50;;
21352;SDS011;10834;52.268;6.770;2022-12-07T05:10:59;2.20;;;1.30;;
21352;SDS011;10834;52.268;6.770;2022-12-07T05:13:45;6.37;;;1.50;;
21352;SDS011;10834;52.268;6.770;2022-12-07T05:16:31;2.47;;;1.10;;
21352;SDS011;10834;52.268;6.770;2022-12-07T05:19:18;5.47;;;1.23;;
21352;SDS011;10834;52.268;6.770;2022-12-07T05:22:04;6.77;;;1.20;;
21352;SDS011;10834;52.268;6.770;2022-12-07T05:24:50;3.37;;;1.00;;
21352;SDS011;10834;52.268;6.770;2022-12-07T05:27:36;6.40;;;1.20;;
21352;SDS011;10834;52.268;6.770;2022-12-07T05:30:23;2.23;;;0.93;;
21352;SDS011;10834;52.268;6.770;2022-12-07T05:33:09;4.20;;;1.17;;
21352;SDS011;10834;52.268;6.770;2022-12-07T05:35:55;6.60;;;1.00;;
21352;SDS011;10834;52.268;6.770;2022-12-07T05:38:41;3.80;;;1.27;;
21352;SDS011;10834;52.268;6.770;2022-12-07T05:41:27;7.87;;;4.23;;
21352;SDS011;10834;52.268;6.770;2022-12-07T05:44:32;7.13;;;1.67;;
21352;SDS011;10834;52.268;6.770;2022-12-07T05:47:18;5.87;;;1.67;;
21352;SDS011;10834;52.268;6.770;2022-12-07T05:50:04;4.37;;;1.30;;
21352;SDS011;10834;52.268;6.770;2022-12-07T05:52:51;8.23;;;1.67;;
21352;SDS011;10834;52.268;6.770;2022-12-07T05:55:37;9.37;;;1.80;;
21352;SDS011;10834;52.268;6.770;2022-12-07T05:58:23;6.30;;;2.03;;
21352;SDS011;10834;52.268;6.770;2022-12-07T06:01:28;4.83;;;1.30;;
21352;SDS011;10834;52.268;6.770;2022-12-07T06:04:14;3.77;;;1.27;;
21352;SDS011;10834;52.268;6.770;2022-12-07T06:07:01;4.87;;;1.20;;
21352;SDS011;10834;52.268;6.770;2022-12-07T06:09:47;7.73;;;1.53;;
21352;SDS011;10834;52.268;6.770;2022-12-07T06:12:33;6.73;;;1.30;;
21352;SDS011;10834;52.268;6.770;2022-12-07T06:15:19;4.97;;;1.60;;
21352;SDS011;10834;52.268;6.770;2022-12-07T06:18:05;10.07;;;1.03;;
21352;SDS011;10834;52.268;6.770;2022-12-07T06:20:51;5.93;;;1.10;;
21352;SDS011;10834;52.268;6.770;2022-12-07T06:23:37;3.00;;;1.30;;
21352;SDS011;10834;52.268;6.770;2022-12-07T06:26:23;9.83;;;1.67;;
21352;SDS011;10834;52.268;6.770;2022-12-07T06:29:10;5.73;;;1.53;;
21352;SDS011;10834;52.268;6.770;2022-12-07T06:31:57;4.70;;;0.87;;
21352;SDS011;10834;52.268;6.770;2022-12-07T06:34:43;8.63;;;1.50;;
21352;SDS011;10834;52.268;6.770;2022-12-07T06:37:29;2.80;;;0.90;;
21352;SDS011;10834;52.268;6.770;2022-12-07T06:40:15;4.20;;;1.30;;
21352;SDS011;10834;52.268;6.770;2022-12-07T06:43:02;5.77;;;1.57;;
21352;SDS011;10834;52.268;6.770;2022-12-07T06:45:48;5.53;;;1.40;;
21352;SDS011;10834;52.268;6.770;2022-12-07T06:48:34;4.97;;;1.30;;
21352;SDS011;10834;52.268;6.770;2022-12-07T06:51:20;2.20;;;1.00;;
21352;SDS011;10834;52.268;6.770;2022-12-07T06:54:09;5.23;;;1.37;;
21352;SDS011;10834;52.268;6.770;2022-12-07T06:56:57;7.00;;;1.23;;
21352;SDS011;10834;52.268;6.770;2022-12-07T06:59:43;6.40;;;1.40;;
21352;SDS011;10834;52.268;6.770;2022-12-07T07:02:29;5.40;;;1.40;;
21352;SDS011;10834;52.268;6.770;2022-12-07T07:05:15;4.53;;;1.10;;
21352;SDS011;10834;52.268;6.770;2022-12-07T07:08:02;3.60;;;1.07;;
21352;SDS011;10834;52.268;6.770;2022-12-07T07:10:48;6.20;;;2.17;;
21352;SDS011;10834;52.268;6.770;2022-12-07T07:13:34;4.53;;;1.13;;
21352;SDS011;10834;52.268;6.770;2022-12-07T07:16:21;3.20;;;1.50;;
21352;SDS011;10834;52.268;6.770;2022-12-07T07:19:07;5.33;;;1.17;;
21352;SDS011;10834;52.268;6.770;2022-12-07T07:21:53;8.53;;;1.07;;
21352;SDS011;10834;52.268;6.770;2022-12-07T07:24:39;6.83;;;1.63;;
21352;SDS011;10834;52.268;6.770;2022-12-07T07:27:25;7.70;;;1.27;;
21352;SDS011;10834;52.268;6.770;2022-12-07T07:30:11;5.07;;;1.40;;
21352;SDS011;10834;52.268;6.770;2022-12-07T07:32:58;3.90;;;1.00;;
21352;SDS011;10834;52.268;6.770;2022-12-07T07:35:45;5.00;;;1.50;;
21352;SDS011;10834;52.268;6.770;2022-12-07T07:38:31;3.43;;;1.50;;
21352;SDS011;10834;52.268;6.770;2022-12-07T07:41:17;5.27;;;1.53;;
21352;SDS011;10834;52.268;6.770;2022-12-07T07:44:04;12.67;;;1.80;;
21352;SDS011;10834;52.268;6.770;2022-12-07T07:46:50;11.60;;;1.97;;
21352;SDS011;10834;52.268;6.770;2022-12-07T07:49:36;4.73;;;1.50;;
21352;SDS011;10834;52.268;6.770;2022-12-07T07:52:22;9.97;;;2.63;;
21352;SDS011;10834;52.268;6.770;2022-12-07T07:55:08;7.20;;;2.00;;
21352;SDS011;10834;52.268;6.770;2022-12-07T07:57:54;5.90;;;2.10;;
21352;SDS011;10834;52.268;6.770;2022-12-07T08:00:40;5.07;;;1.60;;
21352;SDS011;10834;52.268;6.770;2022-12-07T08:03:26;5.03;;;1.47;;
21352;SDS011;10834;52.268;6.770;2022-12-07T08:06:13;5.23;;;1.70;;
21352;SDS011;10834;52.268;6.770;2022-12-07T08:08:59;4.10;;;1.17;;
21352;SDS011;10834;52.268;6.770;2022-12-07T08:11:45;7.03;;;1.60;;
21352;SDS011;10834;52.268;6.770;2022-12-07T08:14:31;5.47;;;1.43;;
21352;SDS011;10834;52.268;6.770;2022-12-07T08:17:17;6.53;;;1.30;;
21352;SDS011;10834;52.268;6.770;2022-12-07T08:20:03;3.33;;;1.40;;
21352;SDS011;10834;52.268;6.770;2022-12-07T08:22:50;6.07;;;1.40;;
21352;SDS011;10834;52.268;6.770;2022-12-07T08:25:36;8.73;;;1.50;;
21352;SDS011;10834;52.268;6.770;2022-12-07T08:28:23;7.30;;;1.73;;
21352;SDS011;10834;52.268;6.770;2022-12-07T08:31:14;4.17;;;1.50;;
21352;SDS011;10834;52.268;6.770;2022-12-07T08:34:02;8.30;;;1.77;;
21352;SDS011;10834;52.268;6.770;2022-12-07T08:36:48;7.97;;;1.93;;
21352;SDS011;10834;52.268;6.770;2022-12-07T08:39:34;6.07;;;1.37;;
21352;SDS011;10834;52.268;6.770;2022-12-07T08:42:20;8.17;;;1.50;;
21352;SDS011;10834;52.268;6.770;2022-12-07T08:45:09;3.50;;;1.30;;
21352;SDS011;10834;52.268;6.770;2022-12-07T08:47:59;8.33;;;1.50;;
21352;SDS011;10834;52.268;6.770;2022-12-07T08:50:51;4.27;;;1.40;;
21352;SDS011;10834;52.268;6.770;2022-12-07T08:53:37;6.00;;;1.37;;
21352;SDS011;10834;52.268;6.770;2022-12-07T08:56:24;4.37;;;1.37;;
21352;SDS011;10834;52.268;6.770;2022-12-07T08:59:12;6.03;;;1.50;;
21352;SDS011;10834;52.268;6.770;2022-12-07T09:02:02;5.27;;;1.57;;
21352;SDS011;10834;52.268;6.770;2022-12-07T09:04:49;6.67;;;1.73;;
21352;SDS011;10834;52.268;6.770;2022-12-07T09:07:35;3.90;;;0.93;;
21352;SDS011;10834;52.268;6.770;2022-12-07T09:10:22;3.90;;;1.47;;
21352;SDS011;10834;52.268;6.770;2022-12-07T09:13:09;5.90;;;1.50;;
21352;SDS011;10834;52.268;6.770;2022-12-07T09:15:55;7.23;;;1.87;;
21352;SDS011;10834;52.268;6.770;2022-12-07T09:18:41;6.23;;;1.40;;
21352;SDS011;10834;52.268;6.770;2022-12-07T09:21:27;4.53;;;1.33;;
21352;SDS011;10834;52.268;6.770;2022-12-07T09:24:13;2.90;;;0.73;;
21352;SDS011;10834;52.268;6.770;2022-12-07T09:26:59;5.07;;;1.50;;
21352;SDS011;10834;52.268;6.770;2022-12-07T09:29:45;3.00;;;1.13;;
21352;SDS011;10834;52.268;6.770;2022-12-07T09:32:31;2.73;;;1.10;;
21352;SDS011;10834;52.268;6.770;2022-12-07T09:35:17;3.80;;;1.10;;
21352;SDS011;10834;52.268;6.770;2022-12-07T09:38:03;7.33;;;1.40;;
21352;SDS011;10834;52.268;6.770;2022-12-07T09:40:50;10.63;;;1.17;;
21352;SDS011;10834;52.268;6.770;2022-12-07T09:43:36;5.20;;;2.43;;
21352;SDS011;10834;52.268;6.770;2022-12-07T09:46:25;5.40;;;2.40;;
21352;SDS011;10834;52.268;6.770;2022-12-07T09:49:18;9.67;;;2.13;;
21352;SDS011;10834;52.268;6.770;2022-12-07T09:54:54;4.57;;;1.40;;
21352;SDS011;10834;52.268;6.770;2022-12-07T09:57:41;5.47;;;1.10;;
21352;SDS011;10834;52.268;6.770;2022-12-07T10:00:29;3.43;;;1.40;;
21352;SDS011;10834;52.268;6.770;2022-12-07T10:03:15;3.80;;;1.97;;
21352;SDS011;10834;52.268;6.770;2022-12-07T10:06:01;2.67;;;1.30;;
21352;SDS011;10834;52.268;6.770;2022-12-07T10:08:47;8.50;;;1.50;;
21352;SDS011;10834;52.268;6.770;2022-12-07T10:11:34;1.77;;;0.83;;
21352;SDS011;10834;52.268;6.770;2022-12-07T10:14:20;2.50;;;0.97;;
21352;SDS011;10834;52.268;6.770;2022-12-07T10:23:13;5.47;;;1.20;;
21352;SDS011;10834;52.268;6.770;2022-12-07T10:26:19;7.23;;;1.33;;
21352;SDS011;10834;52.268;6.770;2022-12-07T10:35:23;11.13;;;1.17;;
21352;SDS011;10834;52.268;6.770;2022-12-07T10:38:16;5.43;;;1.27;;
21352;SDS011;10834;52.268;6.770;2022-12-07T10:41:04;4.40;;;1.17;;
21352;SDS011;10834;52.268;6.770;2022-12-07T10:43:53;3.70;;;1.03;;
21352;SDS011;10834;52.268;6.770;2022-12-07T10:46:43;4.60;;;1.10;;
21352;SDS011;10834;52.268;6.770;2022-12-07T10:56:01;5.93;;;1.40;;
21352;SDS011;10834;52.268;6.770;2022-12-07T11:11:41;3.00;;;0.93;;
21352;SDS011;10834;52.268;6.770;2022-12-07T11:14:55;5.20;;;1.37;;
21352;SDS011;10834;52.268;6.770;2022-12-07T11:23:47;5.23;;;1.00;;
21352;SDS011;10834;52.268;6.770;2022-12-07T11:30:16;1.20;;;0.80;;
21352;SDS011;10834;52.268;6.770;2022-12-07T11:39:09;2.63;;;0.90;;
21352;SDS011;10834;52.268;6.770;2022-12-07T11:42:09;2.87;;;1.33;;
21352;SDS011;10834;52.268;6.770;2022-12-07T11:45:10;3.03;;;1.83;;
21352;SDS011;10834;52.268;6.770;2022-12-07T11:48:06;2.77;;;0.83;;
21352;SDS011;10834;52.268;6.770;2022-12-07T11:51:14;5.63;;;1.37;;
21352;SDS011;10834;52.268;6.770;2022-12-07T11:54:38;4.57;;;1.10;;
21352;SDS011;10834;52.268;6.770;2022-12-07T11:57:24;2.17;;;0.80;;
21352;SDS011;10834;52.268;6.770;2022-12-07T12:00:25;4.03;;;0.93;;
21352;SDS011;10834;52.268;6.770;2022-12-07T12:03:12;4.83;;;1.17;;
21352;SDS011;10834;52.268;6.770;2022-12-07T12:06:03;5.97;;;1.10;;
21352;SDS011;10834;52.268;6.770;2022-12-07T12:08:51;6.27;;;1.33;;
21352;SDS011;10834;52.268;6.770;2022-12-07T12:14:46;6.13;;;0.70;;
21352;SDS011;10834;52.268;6.770;2022-12-07T12:20:50;3.57;;;0.87;;
21352;SDS011;10834;52.268;6.770;2022-12-07T12:23:45;3.60;;;1.00;;
21352;SDS011;10834;52.268;6.770;2022-12-07T12:26:36;4.77;;;1.17;;
21352;SDS011;10834;52.268;6.770;2022-12-07T12:32:23;3.57;;;0.70;;
21352;SDS011;10834;52.268;6.770;2022-12-07T12:35:27;4.73;;;1.20;;
21352;SDS011;10834;52.268;6.770;2022-12-07T12:38:31;2.97;;;0.90;;
21352;SDS011;10834;52.268;6.770;2022-12-07T12:50:31;6.63;;;1.20;;
21352;SDS011;10834;52.268;6.770;2022-12-07T12:53:24;3.43;;;0.90;;
21352;SDS011;10834;52.268;6.770;2022-12-07T12:56:17;8.40;;;1.40;;
21352;SDS011;10834;52.268;6.770;2022-12-07T12:59:21;3.57;;;1.10;;
21352;SDS011;10834;52.268;6.770;2022-12-07T13:05:16;5.53;;;0.90;;
21352;SDS011;10834;52.268;6.770;2022-12-07T13:08:24;3.20;;;0.60;;
21352;SDS011;10834;52.268;6.770;2022-12-07T13:11:25;8.00;;;0.90;;
21352;SDS011;10834;52.268;6.770;2022-12-07T13:21:39;4.67;;;1.30;;
21352;SDS011;10834;52.268;6.770;2022-12-07T13:29:24;3.37;;;0.83;;
21352;SDS011;10834;52.268;6.770;2022-12-07T13:32:21;3.10;;;0.77;;
21352;SDS011;10834;52.268;6.770;2022-12-07T13:38:27;4.97;;;1.17;;
21352;SDS011;10834;52.268;6.770;2022-12-07T13:41:16;8.17;;;1.43;;
21352;SDS011;10834;52.268;6.770;2022-12-07T13:44:14;4.77;;;1.40;;
21352;SDS011;10834;52.268;6.770;2022-12-07T13:50:00;1.77;;;0.90;;
21352;SDS011;10834;52.268;6.770;2022-12-07T13:52:47;3.77;;;1.87;;
21352;SDS011;10834;52.268;6.770;2022-12-07T13:55:34;7.17;;;1.50;;
21352;SDS011;10834;52.268;6.770;2022-12-07T13:58:21;1.67;;;1.07;;
21352;SDS011;10834;52.268;6.770;2022-12-07T14:01:07;5.17;;;1.40;;
21352;SDS011;10834;52.268;6.770;2022-12-07T14:03:54;6.73;;;1.50;;
21352;SDS011;10834;52.268;6.770;2022-12-07T14:06:46;3.23;;;1.57;;
21352;SDS011;10834;52.268;6.770;2022-12-07T14:09:36;2.97;;;1.07;;
21352;SDS011;10834;52.268;6.770;2022-12-07T14:12:23;4.77;;;1.27;;
21352;SDS011;10834;52.268;6.770;2022-12-07T14:15:21;6.70;;;1.30;;
21352;SDS011;10834;52.268;6.770;2022-12-07T14:18:24;11.17;;;1.40;;
21352;SDS011;10834;52.268;6.770;2022-12-07T14:21:23;2.93;;;1.37;;
21352;SDS011;10834;52.268;6.770;2022-12-07T14:24:16;7.97;;;1.83;;
21352;SDS011;10834;52.268;6.770;2022-12-07T14:27:04;8.63;;;1.27;;
21352;SDS011;10834;52.268;6.770;2022-12-07T14:30:14;4.90;;;1.33;;
21352;SDS011;10834;52.268;6.770;2022-12-07T14:33:03;3.40;;;1.13;;
21352;SDS011;10834;52.268;6.770;2022-12-07T14:35:50;2.73;;;0.97;;
21352;SDS011;10834;52.268;6.770;2022-12-07T14:38:41;8.13;;;1.50;;
21352;SDS011;10834;52.268;6.770;2022-12-07T14:41:27;7.40;;;1.30;;
21352;SDS011;10834;52.268;6.770;2022-12-07T14:44:32;7.73;;;1.53;;
21352;SDS011;10834;52.268;6.770;2022-12-07T14:47:18;2.73;;;1.00;;
21352;SDS011;10834;52.268;6.770;2022-12-07T14:50:05;2.63;;;1.80;;
21352;SDS011;10834;52.268;6.770;2022-12-07T14:52:54;6.27;;;1.30;;
21352;SDS011;10834;52.268;6.770;2022-12-07T14:55:42;3.80;;;1.20;;
21352;SDS011;10834;52.268;6.770;2022-12-07T14:58:29;8.17;;;1.17;;
21352;SDS011;10834;52.268;6.770;2022-12-07T15:01:15;3.70;;;0.80;;
21352;SDS011;10834;52.268;6.770;2022-12-07T15:04:01;5.67;;;1.70;;
21352;SDS011;10834;52.268;6.770;2022-12-07T15:06:59;6.17;;;1.07;;
21352;SDS011;10834;52.268;6.770;2022-12-07T15:09:48;8.47;;;1.40;;
21352;SDS011;10834;52.268;6.770;2022-12-07T15:12:34;3.07;;;1.00;;
21352;SDS011;10834;52.268;6.770;2022-12-07T15:15:20;8.70;;;1.83;;
21352;SDS011;10834;52.268;6.770;2022-12-07T15:18:06;7.63;;;0.87;;
21352;SDS011;10834;52.268;6.770;2022-12-07T15:20:52;8.03;;;1.10;;
21352;SDS011;10834;52.268;6.770;2022-12-07T15:23:38;5.43;;;1.50;;
21352;SDS011;10834;52.268;6.770;2022-12-07T15:26:24;12.43;;;1.30;;
21352;SDS011;10834;52.268;6.770;2022-12-07T15:29:11;2.70;;;1.17;;
21352;SDS011;10834;52.268;6.770;2022-12-07T15:31:57;5.43;;;1.20;;
21352;SDS011;10834;52.268;6.770;2022-12-07T15:34:43;10.20;;;1.20;;
21352;SDS011;10834;52.268;6.770;2022-12-07T15:37:29;4.43;;;1.20;;
21352;SDS011;10834;52.268;6.770;2022-12-07T15:40:15;7.37;;;1.10;;
21352;SDS011;10834;52.268;6.770;2022-12-07T15:43:01;4.10;;;1.47;;
21352;SDS011;10834;52.268;6.770;2022-12-07T15:45:49;7.00;;;1.27;;
21352;SDS011;10834;52.268;6.770;2022-12-07T15:48:35;7.67;;;1.87;;
21352;SDS011;10834;52.268;6.770;2022-12-07T15:51:21;5.00;;;1.40;;
21352;SDS011;10834;52.268;6.770;2022-12-07T15:54:09;9.57;;;1.87;;
21352;SDS011;10834;52.268;6.770;2022-12-07T15:57:05;4.53;;;1.80;;
21352;SDS011;10834;52.268;6.770;2022-12-07T15:59:51;3.63;;;1.67;;
21352;SDS011;10834;52.268;6.770;2022-12-07T16:02:38;5.17;;;1.27;;
21352;SDS011;10834;52.268;6.770;2022-12-07T16:05:24;8.93;;;2.27;;
21352;SDS011;10834;52.268;6.770;2022-12-07T16:08:10;12.60;;;6.67;;
21352;SDS011;10834;52.268;6.770;2022-12-07T16:10:56;18.40;;;12.90;;
21352;SDS011;10834;52.268;6.770;2022-12-07T16:13:42;13.37;;;12.00;;
21352;SDS011;10834;52.268;6.770;2022-12-07T16:16:28;11.40;;;7.67;;
21352;SDS011;10834;52.268;6.770;2022-12-07T16:19:15;6.77;;;4.73;;
21352;SDS011;10834;52.268;6.770;2022-12-07T16:22:01;9.50;;;5.27;;
21352;SDS011;10834;52.268;6.770;2022-12-07T16:24:48;7.57;;;6.17;;
21352;SDS011;10834;52.268;6.770;2022-12-07T16:27:34;8.73;;;6.10;;
21352;SDS011;10834;52.268;6.770;2022-12-07T16:30:20;6.00;;;5.23;;
21352;SDS011;10834;52.268;6.770;2022-12-07T16:33:06;8.77;;;5.63;;
21352;SDS011;10834;52.268;6.770;2022-12-07T16:35:52;62.63;;;12.83;;
21352;SDS011;10834;52.268;6.770;2022-12-07T16:38:38;11.10;;;5.37;;
21352;SDS011;10834;52.268;6.770;2022-12-07T16:41:24;8.30;;;4.37;;
21352;SDS011;10834;52.268;6.770;2022-12-07T16:44:11;8.63;;;4.93;;
21352;SDS011;10834;52.268;6.770;2022-12-07T16:46:58;10.70;;;4.30;;
21352;SDS011;10834;52.268;6.770;2022-12-07T16:49:46;9.33;;;4.47;;
21352;SDS011;10834;52.268;6.770;2022-12-07T16:52:33;7.07;;;4.37;;
21352;SDS011;10834;52.268;6.770;2022-12-07T16:55:19;8.47;;;4.03;;
21352;SDS011;10834;52.268;6.770;2022-12-07T16:58:05;6.60;;;3.53;;
21352;SDS011;10834;52.268;6.770;2022-12-07T17:00:51;7.77;;;3.57;;
21352;SDS011;10834;52.268;6.770;2022-12-07T17:03:37;4.83;;;3.00;;
21352;SDS011;10834;52.268;6.770;2022-12-07T17:06:24;5.17;;;2.93;;
21352;SDS011;10834;52.268;6.770;2022-12-07T17:09:11;4.90;;;2.70;;
21352;SDS011;10834;52.268;6.770;2022-12-07T17:11:57;6.77;;;2.47;;
21352;SDS011;10834;52.268;6.770;2022-12-07T17:14:44;5.57;;;3.47;;
21352;SDS011;10834;52.268;6.770;2022-12-07T17:17:52;7.50;;;3.93;;
21352;SDS011;10834;52.268;6.770;2022-12-07T17:20:40;4.40;;;2.10;;
21352;SDS011;10834;52.268;6.770;2022-12-07T17:23:26;6.23;;;2.53;;
21352;SDS011;10834;52.268;6.770;2022-12-07T17:26:14;11.33;;;2.77;;
21352;SDS011;10834;52.268;6.770;2022-12-07T17:29:05;4.80;;;3.13;;
21352;SDS011;10834;52.268;6.770;2022-12-07T17:31:53;12.47;;;8.17;;
21352;SDS011;10834;52.268;6.770;2022-12-07T17:34:39;13.23;;;4.90;;
21352;SDS011;10834;52.268;6.770;2022-12-07T17:37:26;11.20;;;5.13;;
21352;SDS011;10834;52.268;6.770;2022-12-07T17:40:13;11.37;;;4.87;;
21352;SDS011;10834;52.268;6.770;2022-12-07T17:43:00;7.10;;;5.23;;
21352;SDS011;10834;52.268;6.770;2022-12-07T17:45:46;32.23;;;13.20;;
21352;SDS011;10834;52.268;6.770;2022-12-07T17:48:32;29.37;;;12.50;;
21352;SDS011;10834;52.268;6.770;2022-12-07T17:51:18;30.67;;;12.07;;
21352;SDS011;10834;52.268;6.770;2022-12-07T17:54:23;13.00;;;5.80;;
21352;SDS011;10834;52.268;6.770;2022-12-07T17:57:09;7.37;;;3.80;;
21352;SDS011;10834;52.268;6.770;2022-12-07T17:59:55;6.20;;;4.10;;
21352;SDS011;10834;52.268;6.770;2022-12-07T18:02:41;10.10;;;7.90;;
21352;SDS011;10834;52.268;6.770;2022-12-07T18:05:27;6.77;;;4.63;;
21352;SDS011;10834;52.268;6.770;2022-12-07T18:08:14;15.90;;;9.50;;
21352;SDS011;10834;52.268;6.770;2022-12-07T18:11:00;18.77;;;14.33;;
21352;SDS011;10834;52.268;6.770;2022-12-07T18:13:46;8.33;;;6.60;;
21352;SDS011;10834;52.268;6.770;2022-12-07T18:16:32;7.63;;;5.43;;
21352;SDS011;10834;52.268;6.770;2022-12-07T18:19:19;7.30;;;4.60;;
21352;SDS011;10834;52.268;6.770;2022-12-07T18:22:05;5.47;;;4.80;;
21352;SDS011;10834;52.268;6.770;2022-12-07T18:24:52;7.27;;;5.40;;
21352;SDS011;10834;52.268;6.770;2022-12-07T18:27:38;11.93;;;6.57;;
21352;SDS011;10834;52.268;6.770;2022-12-07T18:30:25;9.67;;;7.53;;
21352;SDS011;10834;52.268;6.770;2022-12-07T18:33:11;8.57;;;5.80;;
21352;SDS011;10834;52.268;6.770;2022-12-07T18:35:58;10.17;;;5.97;;
21352;SDS011;10834;52.268;6.770;2022-12-07T18:38:45;13.13;;;8.17;;
21352;SDS011;10834;52.268;6.770;2022-12-07T18:41:31;15.47;;;10.03;;
21352;SDS011;10834;52.268;6.770;2022-12-07T18:44:17;13.50;;;11.30;;
21352;SDS011;10834;52.268;6.770;2022-12-07T18:47:03;11.30;;;6.77;;
21352;SDS011;10834;52.268;6.770;2022-12-07T18:49:49;7.00;;;5.37;;
21352;SDS011;10834;52.268;6.770;2022-12-07T18:52:35;7.93;;;4.50;;
21352;SDS011;10834;52.268;6.770;2022-12-07T18:55:21;5.33;;;4.10;;
21352;SDS011;10834;52.268;6.770;2022-12-07T18:58:07;7.60;;;3.83;;